createdAt,value
2022-12-27T00:02:22.865Z,101215.72
2022-12-27T00:05:26.873Z,101213.81
2022-12-27T00:08:29.435Z,101211.34
2022-12-27T00:11:32.624Z,101214.81
2022-12-27T00:14:35.212Z,101217.38
2022-12-27T00:17:38.597Z,101220.13
2022-12-27T00:20:42.543Z,101220.19
2022-12-27T00:23:47.343Z,101222.81
2022-12-27T00:26:49.937Z,101224.69
2022-12-27T00:29:52.494Z,101225.50
2022-12-27T00:32:55.068Z,101221.69
2022-12-27T00:36:02.061Z,101231.38
2022-12-27T00:39:04.915Z,101228.94
2022-12-27T00:42:07.592Z,101231.38
2022-12-27T00:45:11.519Z,101230.66
2022-12-27T00:48:14.122Z,101235.16
2022-12-27T00:51:20.644Z,101230.69
2022-12-27T00:54:23.239Z,101229.91
2022-12-27T00:57:25.828Z,101228.91
2022-12-27T01:00:28.532Z,101235.16
2022-12-27T01:03:31.139Z,101227.34
2022-12-27T01:06:36.584Z,101229.09
2022-12-27T01:09:39.207Z,101237.97
2022-12-27T01:12:42.052Z,101236.22
2022-12-27T01:15:44.649Z,101249.28
2022-12-27T01:18:48.589Z,101258.00
2022-12-27T01:21:52.552Z,101252.81
2022-12-27T01:24:55.221Z,101248.47
2022-12-27T01:27:57.821Z,101249.19
2022-12-27T01:31:06.004Z,101264.84
2022-12-27T01:34:08.604Z,101258.75
2022-12-27T01:37:12.516Z,101257.94
2022-12-27T01:40:15.201Z,101261.44
2022-12-27T01:43:17.980Z,101263.25
2022-12-27T01:46:20.608Z,101260.69
2022-12-27T01:49:23.215Z,101269.38
2022-12-27T01:52:34.761Z,101267.69
2022-12-27T01:55:43.731Z,101278.97
2022-12-27T01:58:51.009Z,101271.13
2022-12-27T02:01:54.081Z,101279.81
2022-12-27T02:04:56.887Z,101277.22
2022-12-27T02:08:12.664Z,101277.34
2022-12-27T02:11:16.301Z,101279.94
2022-12-27T02:14:26.147Z,101287.69
2022-12-27T02:17:32.485Z,101295.63
2022-12-27T02:20:44.073Z,101295.56
2022-12-27T02:24:06.688Z,101292.06
2022-12-27T02:27:23.307Z,101299.06
2022-12-27T02:30:28.055Z,101295.53
2022-12-27T02:33:37.670Z,101293.00
2022-12-27T02:36:42.994Z,101283.22
2022-12-27T02:39:49.182Z,101283.34
2022-12-27T02:43:10.699Z,101285.97
2022-12-27T02:46:36.958Z,101280.72
2022-12-27T02:49:59.903Z,101291.28
2022-12-27T02:53:11.278Z,101300.06
2022-12-27T02:56:43.100Z,101294.03
2022-12-27T03:00:26.660Z,101307.16
2022-12-27T03:03:44.821Z,101297.38
2022-12-27T03:07:11.034Z,101307.03
2022-12-27T03:10:41.789Z,101324.56
2022-12-27T03:14:05.641Z,101317.41
2022-12-27T03:17:15.501Z,101307.88
2022-12-27T03:20:39.409Z,101309.63
2022-12-27T03:24:02.256Z,101312.16
2022-12-27T03:27:10.166Z,101311.41
2022-12-27T03:30:31.406Z,101304.44
2022-12-27T03:33:36.238Z,101310.56
2022-12-27T03:36:57.837Z,101297.41
2022-12-27T03:40:09.262Z,101314.97
2022-12-27T03:43:15.092Z,101300.97
2022-12-27T03:46:35.655Z,101306.19
2022-12-27T03:49:44.796Z,101332.50
2022-12-27T03:52:53.254Z,101314.13
2022-12-27T03:55:55.875Z,101316.53
2022-12-27T03:59:00.392Z,101314.78
2022-12-27T04:02:03.434Z,101314.03
2022-12-27T04:05:06.737Z,101313.13
2022-12-27T04:08:28.401Z,101320.03
2022-12-27T04:11:48.654Z,101326.09
2022-12-27T04:15:09.032Z,101327.84
2022-12-27T04:18:29.373Z,101333.81
2022-12-27T04:21:49.725Z,101335.72
2022-12-27T04:25:11.383Z,101341.81
2022-12-27T04:28:31.575Z,101338.38
2022-12-27T04:31:51.693Z,101335.81
2022-12-27T04:34:54.275Z,101324.41
2022-12-27T04:37:56.914Z,101326.13
2022-12-27T04:41:18.501Z,101327.78
2022-12-27T04:44:38.687Z,101330.50
2022-12-27T04:47:58.837Z,101325.25
2022-12-27T04:51:19.336Z,101335.66
2022-12-27T04:54:42.396Z,101336.53
2022-12-27T04:57:46.369Z,101327.84
2022-12-27T05:01:13.814Z,101332.16
2022-12-27T05:04:16.999Z,101326.00
2022-12-27T05:07:37.125Z,101332.16
2022-12-27T05:10:57.402Z,101340.00
2022-12-27T05:14:02.388Z,101346.09
2022-12-27T05:17:04.971Z,101344.41
2022-12-27T05:20:08.930Z,101349.59
2022-12-27T05:23:28.177Z,101349.72
2022-12-27T05:26:32.124Z,101356.69
2022-12-27T05:29:36.290Z,101363.69
2022-12-27T05:32:38.887Z,101360.06
2022-12-27T05:35:42.168Z,101370.38
2022-12-27T05:38:44.878Z,101367.03
2022-12-27T05:41:47.510Z,101352.81
2022-12-27T05:44:51.425Z,101367.75
2022-12-27T05:47:54.052Z,101361.44
2022-12-27T05:50:56.683Z,101351.06
2022-12-27T05:53:59.367Z,101375.69
2022-12-27T05:57:01.965Z,101368.75
2022-12-27T06:00:07.687Z,101374.00
2022-12-27T06:03:10.383Z,101372.38
2022-12-27T06:06:13.826Z,101386.31
2022-12-27T06:09:16.476Z,101391.66
2022-12-27T06:12:19.039Z,101391.63
2022-12-27T06:15:22.968Z,101399.50
2022-12-27T06:18:25.666Z,101402.19
2022-12-27T06:21:28.281Z,101395.09
2022-12-27T06:24:30.864Z,101390.72
2022-12-27T06:27:33.433Z,101402.03
2022-12-27T06:30:37.372Z,101413.38
2022-12-27T06:33:39.978Z,101410.84
2022-12-27T06:36:42.576Z,101410.75
2022-12-27T06:39:45.213Z,101418.66
2022-12-27T06:42:47.769Z,101422.19
2022-12-27T06:45:58.002Z,101428.28
2022-12-27T06:49:00.579Z,101426.44
2022-12-27T06:52:03.193Z,101432.66
2022-12-27T06:55:06.309Z,101440.47
2022-12-27T06:58:08.944Z,101452.81
2022-12-27T07:01:15.212Z,101450.16
2022-12-27T07:04:17.909Z,101464.28
2022-12-27T07:07:20.488Z,101460.75
2022-12-27T07:10:23.052Z,101474.78
2022-12-27T07:13:25.628Z,101482.63
2022-12-27T07:16:31.021Z,101493.09
2022-12-27T07:19:33.852Z,101484.28
2022-12-27T07:22:36.453Z,101497.41
2022-12-27T07:25:39.033Z,101504.44
2022-12-27T07:28:42.000Z,101501.78
2022-12-27T07:31:45.964Z,101516.81
2022-12-27T07:34:48.594Z,101534.28
2022-12-27T07:37:51.188Z,101529.81
2022-12-27T07:40:53.770Z,101535.19
2022-12-27T07:43:56.509Z,101529.75
2022-12-27T07:47:00.485Z,101533.47
2022-12-27T07:50:03.117Z,101539.56
2022-12-27T07:53:05.704Z,101545.78
2022-12-27T07:56:09.725Z,101547.50
2022-12-27T07:59:14.085Z,101549.28
2022-12-27T08:02:18.229Z,101548.31
2022-12-27T08:05:25.899Z,101558.09
2022-12-27T08:08:36.704Z,101562.44
2022-12-27T08:11:39.296Z,101562.44
2022-12-27T08:14:42.317Z,101559.75
2022-12-27T08:17:46.306Z,101566.81
2022-12-27T08:20:48.962Z,101574.63
2022-12-27T08:23:51.610Z,101572.06
2022-12-27T08:26:54.209Z,101587.00
2022-12-27T08:29:56.930Z,101588.78
2022-12-27T08:33:02.226Z,101586.06
2022-12-27T08:36:22.314Z,101588.75
2022-12-27T08:39:29.133Z,101587.88
2022-12-27T08:42:31.716Z,101593.13
2022-12-27T08:45:34.465Z,101603.59
2022-12-27T08:48:38.468Z,101607.03
2022-12-27T08:51:41.776Z,101615.75
2022-12-27T08:54:44.447Z,101603.53
2022-12-27T08:57:47.025Z,101605.31
2022-12-27T09:00:49.595Z,101614.03
2022-12-27T09:03:53.802Z,101622.78
2022-12-27T09:06:56.422Z,101625.47
2022-12-27T09:09:59.299Z,101629.91
2022-12-27T09:13:01.886Z,101628.94
2022-12-27T09:16:07.582Z,101632.31
2022-12-27T09:19:12.158Z,101635.03
2022-12-27T09:22:15.001Z,101633.28
2022-12-27T09:25:17.953Z,101644.59
2022-12-27T09:28:20.861Z,101653.38
2022-12-27T09:31:24.475Z,101657.69
2022-12-27T09:34:28.494Z,101665.59
2022-12-27T09:37:32.626Z,101663.78
2022-12-27T09:40:35.252Z,101660.28
2022-12-27T09:43:42.819Z,101662.78
2022-12-27T09:46:53.185Z,101664.59
2022-12-27T09:50:01.987Z,101670.75
2022-12-27T09:53:11.636Z,101682.09
2022-12-27T09:56:24.178Z,101671.56
2022-12-27T09:59:32.877Z,101662.56
2022-12-27T10:02:36.131Z,101665.41
2022-12-27T10:05:43.688Z,101672.47
2022-12-27T10:08:54.679Z,101672.47
2022-12-27T10:12:05.566Z,101682.91
2022-12-27T10:15:20.226Z,101675.09
2022-12-27T10:18:37.765Z,101683.75
2022-12-27T10:21:57.918Z,101690.03
2022-12-27T10:25:03.713Z,101685.56
2022-12-27T10:28:16.110Z,101689.09
2022-12-27T10:31:20.488Z,101691.72
2022-12-27T10:34:24.476Z,101700.44
2022-12-27T10:37:28.561Z,101701.34
2022-12-27T10:40:39.232Z,101709.09
2022-12-27T10:43:43.795Z,101706.47
2022-12-27T10:46:52.526Z,101709.84
2022-12-27T10:50:09.628Z,101715.72
2022-12-27T10:56:42.321Z,101701.47
2022-12-27T10:59:44.921Z,101708.41
2022-12-27T11:02:51.737Z,101710.81
2022-12-27T11:06:02.280Z,101715.63
2022-12-27T11:09:21.515Z,101720.03
2022-12-27T11:12:28.771Z,101724.84
2022-12-27T11:15:34.605Z,101730.50
2022-12-27T11:18:38.109Z,101724.84
2022-12-27T11:21:41.174Z,101738.66
2022-12-27T11:24:47.605Z,101729.09
2022-12-27T11:27:54.887Z,101738.81
2022-12-27T11:31:00.557Z,101743.16
2022-12-27T11:34:07.400Z,101746.19
2022-12-27T11:37:15.576Z,101750.41
2022-12-27T11:40:30.398Z,101751.34
2022-12-27T11:43:39.399Z,101746.06
2022-12-27T11:46:46.294Z,101752.94
2022-12-27T11:49:54.200Z,101754.75
2022-12-27T11:53:20.483Z,101748.72
2022-12-27T11:56:27.699Z,101751.44
2022-12-27T11:59:45.713Z,101760.03
2022-12-27T12:03:03.199Z,101754.09
2022-12-27T12:06:15.451Z,101753.41
2022-12-27T12:09:45.541Z,101758.50
2022-12-27T12:13:09.546Z,101761.09
2022-12-27T12:16:40.591Z,101771.72
2022-12-27T12:20:16.966Z,101756.81
2022-12-27T12:23:31.298Z,101761.22
2022-12-27T12:26:39.214Z,101762.19
2022-12-27T12:30:05.241Z,101758.66
2022-12-27T12:33:33.035Z,101755.91
2022-12-27T12:36:52.676Z,101774.38
2022-12-27T12:40:14.381Z,101768.94
2022-12-27T12:43:34.572Z,101769.09
2022-12-27T12:46:45.083Z,101764.50
2022-12-27T12:50:13.221Z,101763.75
2022-12-27T12:53:41.494Z,101759.91
2022-12-27T12:56:59.790Z,101765.59
2022-12-27T13:00:17.971Z,101768.00
2022-12-27T13:04:02.634Z,101758.47
2022-12-27T13:07:26.975Z,101758.09
2022-12-27T13:10:56.960Z,101756.72
2022-12-27T13:14:17.294Z,101757.13
2022-12-27T13:17:26.347Z,101763.00
2022-12-27T13:20:50.943Z,101751.84
2022-12-27T13:24:08.281Z,101747.06
2022-12-27T13:27:21.549Z,101749.75
2022-12-27T13:30:28.739Z,101751.38
2022-12-27T13:33:43.914Z,101756.56
2022-12-27T13:37:01.386Z,101752.41
2022-12-27T13:40:29.812Z,101748.97
2022-12-27T13:43:54.208Z,101751.69
2022-12-27T13:47:32.211Z,101752.63
2022-12-27T13:50:52.676Z,101753.56
2022-12-27T13:54:17.677Z,101751.66
2022-12-27T13:57:39.882Z,101753.59
2022-12-27T14:00:47.711Z,101746.63
2022-12-27T14:04:06.567Z,101750.84
2022-12-27T14:07:32.530Z,101753.59
2022-12-27T14:10:37.799Z,101756.06
2022-12-27T14:13:45.131Z,101746.59
2022-12-27T14:16:59.696Z,101750.16
2022-12-27T14:20:18.546Z,101750.16
2022-12-27T14:23:54.721Z,101748.56
2022-12-27T14:27:40.088Z,101743.09
2022-12-27T14:31:17.867Z,101745.75
2022-12-27T14:35:05.886Z,101744.84
2022-12-27T14:38:53.334Z,101752.69
2022-12-27T14:42:30.882Z,101744.84
2022-12-27T14:45:59.428Z,101748.41
2022-12-27T14:49:27.074Z,101755.50
2022-12-27T14:53:13.074Z,101756.44
2022-12-27T14:56:26.699Z,101753.00
2022-12-27T14:59:41.135Z,101757.53
2022-12-27T15:03:02.333Z,101763.47
2022-12-27T15:06:14.582Z,101769.63
2022-12-27T15:09:29.692Z,101770.59
2022-12-27T15:12:41.731Z,101775.09
2022-12-27T15:15:54.832Z,101778.53
2022-12-27T15:19:14.081Z,101774.28
2022-12-27T15:22:29.298Z,101770.63
2022-12-27T15:25:47.025Z,101764.53
2022-12-27T15:29:06.105Z,101763.63
2022-12-27T15:32:24.707Z,101767.19
2022-12-27T15:35:55.860Z,101770.72
2022-12-27T15:39:00.419Z,101767.13
2022-12-27T15:42:11.975Z,101761.00
2022-12-27T15:45:26.940Z,101758.50
2022-12-27T15:48:59.312Z,101762.00
2022-12-27T15:52:09.404Z,101767.19
2022-12-27T15:55:23.448Z,101763.78
2022-12-27T15:58:27.333Z,101757.72
2022-12-27T16:01:30.855Z,101749.00
2022-12-27T16:04:47.377Z,101747.09
2022-12-27T16:07:52.460Z,101745.31
2022-12-27T16:10:58.225Z,101743.50
2022-12-27T16:14:24.105Z,101745.41
2022-12-27T16:17:36.472Z,101738.34
2022-12-27T16:20:40.697Z,101742.81
2022-12-27T16:23:51.431Z,101731.38
2022-12-27T16:27:00.428Z,101737.47
2022-12-27T16:30:03.919Z,101732.97
2022-12-27T16:33:06.915Z,101737.44
2022-12-27T16:36:23.442Z,101745.31
2022-12-27T16:39:46.141Z,101733.09
2022-12-27T16:43:33.391Z,101727.72
2022-12-27T16:47:10.396Z,101733.09
2022-12-27T16:50:29.902Z,101733.13
2022-12-27T16:53:51.782Z,101733.06
2022-12-27T16:57:23.342Z,101732.22
2022-12-27T17:00:40.249Z,101740.13
2022-12-27T17:03:48.519Z,101747.00
2022-12-27T17:06:57.305Z,101751.50
2022-12-27T17:10:31.930Z,101741.84
2022-12-27T17:13:38.762Z,101754.09
2022-12-27T17:16:46.776Z,101741.03
2022-12-27T17:19:55.051Z,101748.88
2022-12-27T17:22:58.638Z,101748.88
2022-12-27T17:26:27.999Z,101743.56
2022-12-27T17:29:49.195Z,101739.16
2022-12-27T17:33:17.370Z,101739.28
2022-12-27T17:36:37.645Z,101735.72
2022-12-27T17:39:57.985Z,101738.34
2022-12-27T17:43:29.929Z,101731.34
2022-12-27T17:46:41.880Z,101737.47
2022-12-27T17:49:46.033Z,101721.66
2022-12-27T17:53:22.033Z,101720.84
2022-12-27T17:56:42.471Z,101723.44
2022-12-27T17:59:47.804Z,101724.22
2022-12-27T18:02:51.893Z,101724.25
2022-12-27T18:05:55.931Z,101715.50
2022-12-27T18:08:58.879Z,101729.50
2022-12-27T18:12:02.444Z,101716.34
2022-12-27T18:15:08.627Z,101713.53
2022-12-27T18:18:18.749Z,101713.63
2022-12-27T18:21:24.857Z,101712.66
2022-12-27T18:24:29.716Z,101702.88
2022-12-27T18:27:32.324Z,101714.31
2022-12-27T18:30:39.950Z,101709.09
2022-12-27T18:33:44.712Z,101713.38
2022-12-27T18:36:52.061Z,101701.97
2022-12-27T18:39:57.449Z,101693.22
2022-12-27T18:43:00.135Z,101701.28
2022-12-27T18:46:04.911Z,101689.00
2022-12-27T18:49:07.789Z,101688.97
2022-12-27T18:52:15.174Z,101688.09
2022-12-27T18:55:20.714Z,101684.41
2022-12-27T18:58:24.871Z,101672.91
2022-12-27T19:01:35.712Z,101664.91
2022-12-27T19:04:38.338Z,101663.22
2022-12-27T19:07:42.821Z,101653.50
2022-12-27T19:10:49.293Z,101652.56
2022-12-27T19:13:54.442Z,101646.44
2022-12-27T19:17:01.920Z,101642.88
2022-12-27T19:20:18.660Z,101651.63
2022-12-27T19:23:32.546Z,101650.94
2022-12-27T19:26:35.128Z,101639.47
2022-12-27T19:29:49.382Z,101636.28
2022-12-27T19:32:52.002Z,101632.63
2022-12-27T19:35:55.561Z,101632.63
2022-12-27T19:39:00.135Z,101628.25
2022-12-27T19:42:04.813Z,101621.22
2022-12-27T19:45:08.411Z,101617.03
2022-12-27T19:48:11.876Z,101616.88
2022-12-27T19:51:17.290Z,101610.75
2022-12-27T19:54:22.694Z,101607.50
2022-12-27T19:57:25.354Z,101606.41
2022-12-27T20:00:27.972Z,101609.94
2022-12-27T20:03:31.016Z,101608.19
2022-12-27T20:06:33.817Z,101614.47
2022-12-27T20:09:37.786Z,101610.03
2022-12-27T20:12:40.465Z,101594.19
2022-12-27T20:15:43.062Z,101600.50
2022-12-27T20:18:46.143Z,101596.13
2022-12-27T20:21:48.723Z,101590.00
2022-12-27T20:24:52.685Z,101584.63
2022-12-27T20:27:55.305Z,101569.72
2022-12-27T20:30:57.904Z,101576.63
2022-12-27T20:34:00.531Z,101580.13
2022-12-27T20:37:03.158Z,101587.28
2022-12-27T20:40:08.523Z,101579.31
2022-12-27T20:43:11.137Z,101573.03
2022-12-27T20:46:16.360Z,101558.28
2022-12-27T20:49:18.984Z,101563.69
2022-12-27T20:52:25.748Z,101546.19
2022-12-27T20:55:34.903Z,101544.25
2022-12-27T20:58:37.530Z,101533.69
2022-12-27T21:01:40.293Z,101543.34
2022-12-27T21:04:42.955Z,101540.63
2022-12-27T21:07:45.594Z,101544.28
2022-12-27T21:10:49.563Z,101547.91
2022-12-27T21:13:52.248Z,101554.88
2022-12-27T21:16:54.949Z,101539.19
2022-12-27T21:19:57.591Z,101538.19
2022-12-27T21:23:00.188Z,101532.13
2022-12-27T21:26:10.308Z,101535.53
2022-12-27T21:29:14.355Z,101524.19
2022-12-27T21:32:17.778Z,101519.81
2022-12-27T21:35:20.404Z,101526.63
2022-12-27T21:38:23.050Z,101522.22
2022-12-27T21:41:28.914Z,101522.31
2022-12-27T21:44:31.576Z,101517.91
2022-12-27T21:47:34.179Z,101516.03
2022-12-27T21:50:37.480Z,101511.50
2022-12-27T21:53:40.941Z,101494.16
2022-12-27T21:56:44.927Z,101495.81
2022-12-27T21:59:47.483Z,101496.94
2022-12-27T22:02:50.754Z,101485.63
2022-12-27T22:05:53.437Z,101471.53
2022-12-27T22:08:58.239Z,101467.78
2022-12-27T22:12:02.180Z,101463.25
2022-12-27T22:15:05.485Z,101464.53
2022-12-27T22:18:08.049Z,101453.75
2022-12-27T22:21:12.703Z,101438.75
2022-12-27T22:24:19.430Z,101437.75
2022-12-27T22:27:23.727Z,101432.66
2022-12-27T22:30:26.339Z,101425.69
2022-12-27T22:33:28.900Z,101421.81
2022-12-27T22:36:31.535Z,101414.09
2022-12-27T22:39:34.135Z,101420.00
2022-12-27T22:42:38.087Z,101418.34
2022-12-27T22:45:41.809Z,101408.38
2022-12-27T22:48:44.469Z,101397.88
2022-12-27T22:51:47.072Z,101399.81
2022-12-27T22:55:04.581Z,101390.22
2022-12-27T22:58:10.677Z,101389.94
2022-12-27T23:01:14.451Z,101392.47
2022-12-27T23:04:17.160Z,101381.13
2022-12-27T23:07:21.044Z,101387.16
2022-12-27T23:10:43.593Z,101380.97
2022-12-27T23:13:48.117Z,101369.53
2022-12-27T23:16:51.015Z,101372.75
2022-12-27T23:19:53.596Z,101364.13
2022-12-27T23:22:56.191Z,101369.28
2022-12-27T23:26:04.018Z,101366.56
2022-12-27T23:29:08.194Z,101362.53
2022-12-27T23:32:10.803Z,101359.78
2022-12-27T23:35:13.363Z,101363.34
2022-12-27T23:38:15.973Z,101355.50
2022-12-27T23:41:20.526Z,101345.81
2022-12-27T23:44:34.567Z,101345.34
2022-12-27T23:47:37.556Z,101341.03
2022-12-27T23:50:40.183Z,101318.94
2022-12-27T23:53:43.475Z,101310.81
2022-12-27T23:56:46.037Z,101301.19
2022-12-27T23:59:51.181Z,101295.84
